sensor_id;sensor_type;location;lat;lon;timestamp;temperature;humidity
33827;DHT22;20128;45.582;5.298;2023-09-12T00:00:49;26.70;42.70
33827;DHT22;20128;45.582;5.298;2023-09-12T00:03:19;26.70;42.70
33827;DHT22;20128;45.582;5.298;2023-09-12T00:05:54;26.70;42.50
33827;DHT22;20128;45.582;5.298;2023-09-12T00:08:19;26.50;42.40
33827;DHT22;20128;45.582;5.298;2023-09-12T00:10:46;26.40;42.10
33827;DHT22;20128;45.582;5.298;2023-09-12T00:13:11;26.20;42.10
33827;DHT22;20128;45.582;5.298;2023-09-12T00:15:37;26.10;42.30
33827;DHT22;20128;45.582;5.298;2023-09-12T00:18:03;26.00;42.30
33827;DHT22;20128;45.582;5.298;2023-09-12T00:20:28;25.90;42.50
33827;DHT22;20128;45.582;5.298;2023-09-12T00:22:54;25.90;42.70
33827;DHT22;20128;45.582;5.298;2023-09-12T00:25:20;25.90;42.80
33827;DHT22;20128;45.582;5.298;2023-09-12T00:27:46;25.80;42.70
33827;DHT22;20128;45.582;5.298;2023-09-12T00:30:14;25.80;42.80
33827;DHT22;20128;45.582;5.298;2023-09-12T00:32:40;25.90;42.70
33827;DHT22;20128;45.582;5.298;2023-09-12T00:35:06;25.80;42.70
33827;DHT22;20128;45.582;5.298;2023-09-12T00:37:31;25.90;42.80
33827;DHT22;20128;45.582;5.298;2023-09-12T00:39:57;25.80;42.60
33827;DHT22;20128;45.582;5.298;2023-09-12T00:42:25;25.80;42.70
33827;DHT22;20128;45.582;5.298;2023-09-12T00:44:52;25.70;42.70
33827;DHT22;20128;45.582;5.298;2023-09-12T00:47:18;25.50;42.80
33827;DHT22;20128;45.582;5.298;2023-09-12T00:49:44;25.40;43.00
33827;DHT22;20128;45.582;5.298;2023-09-12T00:52:11;25.30;43.30
33827;DHT22;20128;45.582;5.298;2023-09-12T00:54:38;25.30;43.50
33827;DHT22;20128;45.582;5.298;2023-09-12T00:57:04;25.20;43.60
33827;DHT22;20128;45.582;5.298;2023-09-12T00:59:30;25.10;43.70
33827;DHT22;20128;45.582;5.298;2023-09-12T01:01:57;25.10;43.80
33827;DHT22;20128;45.582;5.298;2023-09-12T01:04:22;25.00;43.90
33827;DHT22;20128;45.582;5.298;2023-09-12T01:06:49;25.00;44.00
33827;DHT22;20128;45.582;5.298;2023-09-12T01:09:14;24.90;44.20
33827;DHT22;20128;45.582;5.298;2023-09-12T01:11:40;24.90;44.30
33827;DHT22;20128;45.582;5.298;2023-09-12T01:14:06;24.90;44.40
33827;DHT22;20128;45.582;5.298;2023-09-12T01:16:32;24.90;44.30
33827;DHT22;20128;45.582;5.298;2023-09-12T01:18:58;24.90;44.40
33827;DHT22;20128;45.582;5.298;2023-09-12T01:29:12;24.70;44.80
33827;DHT22;20128;45.582;5.298;2023-09-12T01:31:39;24.70;45.00
33827;DHT22;20128;45.582;5.298;2023-09-12T01:34:09;24.70;44.90
33827;DHT22;20128;45.582;5.298;2023-09-12T01:36:36;24.70;44.90
33827;DHT22;20128;45.582;5.298;2023-09-12T01:39:01;24.80;44.80
33827;DHT22;20128;45.582;5.298;2023-09-12T01:41:29;24.80;44.70
33827;DHT22;20128;45.582;5.298;2023-09-12T01:43:56;24.90;44.70
33827;DHT22;20128;45.582;5.298;2023-09-12T01:46:23;24.90;44.80
33827;DHT22;20128;45.582;5.298;2023-09-12T01:48:50;24.90;44.90
33827;DHT22;20128;45.582;5.298;2023-09-12T01:51:18;25.00;45.10
33827;DHT22;20128;45.582;5.298;2023-09-12T01:53:45;25.10;44.80
33827;DHT22;20128;45.582;5.298;2023-09-12T01:56:12;25.10;44.60
33827;DHT22;20128;45.582;5.298;2023-09-12T01:58:38;25.10;44.30
33827;DHT22;20128;45.582;5.298;2023-09-12T02:01:04;25.10;44.30
33827;DHT22;20128;45.582;5.298;2023-09-12T02:03:29;25.10;44.30
33827;DHT22;20128;45.582;5.298;2023-09-12T02:05:55;25.10;44.20
33827;DHT22;20128;45.582;5.298;2023-09-12T02:08:21;25.00;44.20
33827;DHT22;20128;45.582;5.298;2023-09-12T02:10:47;24.90;44.20
33827;DHT22;20128;45.582;5.298;2023-09-12T02:13:13;24.90;44.30
33827;DHT22;20128;45.582;5.298;2023-09-12T02:15:38;25.00;44.40
33827;DHT22;20128;45.582;5.298;2023-09-12T02:18:04;24.90;43.90
33827;DHT22;20128;45.582;5.298;2023-09-12T02:20:30;24.90;44.00
33827;DHT22;20128;45.582;5.298;2023-09-12T02:22:56;24.80;43.90
33827;DHT22;20128;45.582;5.298;2023-09-12T02:25:22;24.80;43.70
33827;DHT22;20128;45.582;5.298;2023-09-12T02:27:47;24.70;43.60
33827;DHT22;20128;45.582;5.298;2023-09-12T02:30:13;24.70;43.90
33827;DHT22;20128;45.582;5.298;2023-09-12T02:32:38;24.80;43.80
33827;DHT22;20128;45.582;5.298;2023-09-12T02:35:06;24.80;43.70
33827;DHT22;20128;45.582;5.298;2023-09-12T02:37:32;24.80;43.80
33827;DHT22;20128;45.582;5.298;2023-09-12T02:39:58;24.90;44.00
33827;DHT22;20128;45.582;5.298;2023-09-12T02:42:23;24.90;44.20
33827;DHT22;20128;45.582;5.298;2023-09-12T02:44:50;25.00;44.30
33827;DHT22;20128;45.582;5.298;2023-09-12T02:47:17;25.00;44.70
33827;DHT22;20128;45.582;5.298;2023-09-12T02:49:43;25.10;44.60
33827;DHT22;20128;45.582;5.298;2023-09-12T02:52:08;25.10;44.80
33827;DHT22;20128;45.582;5.298;2023-09-12T02:54:34;25.10;45.20
33827;DHT22;20128;45.582;5.298;2023-09-12T02:57:00;25.00;45.10
33827;DHT22;20128;45.582;5.298;2023-09-12T02:59:25;25.00;45.00
33827;DHT22;20128;45.582;5.298;2023-09-12T03:01:51;24.90;44.50
33827;DHT22;20128;45.582;5.298;2023-09-12T03:04:17;24.90;44.10
33827;DHT22;20128;45.582;5.298;2023-09-12T03:06:42;24.70;43.50
33827;DHT22;20128;45.582;5.298;2023-09-12T03:09:09;24.60;43.20
33827;DHT22;20128;45.582;5.298;2023-09-12T03:11:36;24.50;43.40
33827;DHT22;20128;45.582;5.298;2023-09-12T03:14:02;24.60;43.80
33827;DHT22;20128;45.582;5.298;2023-09-12T03:16:28;24.60;43.70
33827;DHT22;20128;45.582;5.298;2023-09-12T03:18:53;24.60;43.20
33827;DHT22;20128;45.582;5.298;2023-09-12T03:21:19;24.60;43.00
33827;DHT22;20128;45.582;5.298;2023-09-12T03:23:44;24.50;43.00
33827;DHT22;20128;45.582;5.298;2023-09-12T03:26:10;24.40;43.20
33827;DHT22;20128;45.582;5.298;2023-09-12T03:28:36;24.40;42.80
33827;DHT22;20128;45.582;5.298;2023-09-12T03:31:09;24.30;43.50
33827;DHT22;20128;45.582;5.298;2023-09-12T03:33:37;24.30;43.30
33827;DHT22;20128;45.582;5.298;2023-09-12T03:36:03;24.20;43.00
33827;DHT22;20128;45.582;5.298;2023-09-12T03:38:29;24.10;42.90
33827;DHT22;20128;45.582;5.298;2023-09-12T03:40:54;24.10;43.10
33827;DHT22;20128;45.582;5.298;2023-09-12T03:43:20;24.10;42.90
33827;DHT22;20128;45.582;5.298;2023-09-12T03:45:45;24.10;43.00
33827;DHT22;20128;45.582;5.298;2023-09-12T03:48:11;24.10;43.00
33827;DHT22;20128;45.582;5.298;2023-09-12T03:50:37;24.10;43.10
33827;DHT22;20128;45.582;5.298;2023-09-12T03:53:02;24.10;43.30
33827;DHT22;20128;45.582;5.298;2023-09-12T03:55:28;24.00;43.40
33827;DHT22;20128;45.582;5.298;2023-09-12T03:57:54;23.90;43.50
33827;DHT22;20128;45.582;5.298;2023-09-12T04:00:19;24.00;44.00
33827;DHT22;20128;45.582;5.298;2023-09-12T04:02:45;24.00;44.20
33827;DHT22;20128;45.582;5.298;2023-09-12T04:05:10;24.10;44.70
33827;DHT22;20128;45.582;5.298;2023-09-12T04:07:36;24.20;44.90
33827;DHT22;20128;45.582;5.298;2023-09-12T04:10:02;24.30;44.70
33827;DHT22;20128;45.582;5.298;2023-09-12T04:12:27;24.30;44.60
33827;DHT22;20128;45.582;5.298;2023-09-12T04:14:53;24.30;44.60
33827;DHT22;20128;45.582;5.298;2023-09-12T04:17:20;24.30;44.50
33827;DHT22;20128;45.582;5.298;2023-09-12T04:19:46;24.30;44.80
33827;DHT22;20128;45.582;5.298;2023-09-12T04:22:11;24.30;44.60
33827;DHT22;20128;45.582;5.298;2023-09-12T04:24:37;24.20;44.50
33827;DHT22;20128;45.582;5.298;2023-09-12T04:27:03;24.20;44.60
33827;DHT22;20128;45.582;5.298;2023-09-12T04:29:29;24.10;44.60
33827;DHT22;20128;45.582;5.298;2023-09-12T04:31:54;24.00;44.80
33827;DHT22;20128;45.582;5.298;2023-09-12T04:34:25;23.90;44.90
33827;DHT22;20128;45.582;5.298;2023-09-12T04:36:52;23.90;45.00
33827;DHT22;20128;45.582;5.298;2023-09-12T04:39:17;23.80;45.00
33827;DHT22;20128;45.582;5.298;2023-09-12T04:41:43;23.80;45.00
33827;DHT22;20128;45.582;5.298;2023-09-12T04:44:08;23.80;45.20
33827;DHT22;20128;45.582;5.298;2023-09-12T04:46:34;23.80;45.30
33827;DHT22;20128;45.582;5.298;2023-09-12T04:49:00;23.80;45.70
33827;DHT22;20128;45.582;5.298;2023-09-12T04:51:25;23.80;45.40
33827;DHT22;20128;45.582;5.298;2023-09-12T04:53:52;23.80;45.50
33827;DHT22;20128;45.582;5.298;2023-09-12T04:56:18;23.90;45.60
33827;DHT22;20128;45.582;5.298;2023-09-12T04:58:44;24.00;45.80
33827;DHT22;20128;45.582;5.298;2023-09-12T05:01:09;24.00;45.90
33827;DHT22;20128;45.582;5.298;2023-09-12T05:03:35;24.00;45.90
33827;DHT22;20128;45.582;5.298;2023-09-12T05:06:01;24.00;45.90
33827;DHT22;20128;45.582;5.298;2023-09-12T05:08:27;23.90;46.00
33827;DHT22;20128;45.582;5.298;2023-09-12T05:10:54;23.90;46.00
33827;DHT22;20128;45.582;5.298;2023-09-12T05:13:20;23.90;46.10
33827;DHT22;20128;45.582;5.298;2023-09-12T05:15:46;23.90;46.50
33827;DHT22;20128;45.582;5.298;2023-09-12T05:18:12;23.90;46.70
33827;DHT22;20128;45.582;5.298;2023-09-12T05:20:38;24.00;46.50
33827;DHT22;20128;45.582;5.298;2023-09-12T05:23:03;24.00;46.50
33827;DHT22;20128;45.582;5.298;2023-09-12T05:25:29;24.00;46.70
33827;DHT22;20128;45.582;5.298;2023-09-12T05:27:56;24.00;46.40
33827;DHT22;20128;45.582;5.298;2023-09-12T05:30:21;24.00;46.60
33827;DHT22;20128;45.582;5.298;2023-09-12T05:32:47;24.00;47.30
33827;DHT22;20128;45.582;5.298;2023-09-12T05:35:13;24.00;47.70
33827;DHT22;20128;45.582;5.298;2023-09-12T05:37:38;24.00;46.90
33827;DHT22;20128;45.582;5.298;2023-09-12T05:40:05;24.00;46.70
33827;DHT22;20128;45.582;5.298;2023-09-12T05:42:31;23.90;46.70
33827;DHT22;20128;45.582;5.298;2023-09-12T05:44:56;23.80;46.90
33827;DHT22;20128;45.582;5.298;2023-09-12T05:47:23;23.80;47.20
33827;DHT22;20128;45.582;5.298;2023-09-12T05:49:49;23.80;47.30
33827;DHT22;20128;45.582;5.298;2023-09-12T05:52:15;23.80;47.30
33827;DHT22;20128;45.582;5.298;2023-09-12T05:54:41;23.80;47.40
33827;DHT22;20128;45.582;5.298;2023-09-12T05:57:08;23.80;47.30
33827;DHT22;20128;45.582;5.298;2023-09-12T05:59:38;23.80;47.20
33827;DHT22;20128;45.582;5.298;2023-09-12T06:02:05;23.80;47.30
33827;DHT22;20128;45.582;5.298;2023-09-12T06:04:32;23.90;47.60
33827;DHT22;20128;45.582;5.298;2023-09-12T06:06:58;23.80;47.60
33827;DHT22;20128;45.582;5.298;2023-09-12T06:09:23;23.80;48.00
33827;DHT22;20128;45.582;5.298;2023-09-12T06:11:49;23.90;48.20
33827;DHT22;20128;45.582;5.298;2023-09-12T06:14:15;23.90;48.40
33827;DHT22;20128;45.582;5.298;2023-09-12T06:16:41;23.90;48.10
33827;DHT22;20128;45.582;5.298;2023-09-12T06:19:07;23.90;48.50
33827;DHT22;20128;45.582;5.298;2023-09-12T06:21:32;24.00;48.70
33827;DHT22;20128;45.582;5.298;2023-09-12T06:24:12;24.00;48.70
33827;DHT22;20128;45.582;5.298;2023-09-12T06:26:39;24.00;48.70
33827;DHT22;20128;45.582;5.298;2023-09-12T06:29:04;24.00;48.80
33827;DHT22;20128;45.582;5.298;2023-09-12T06:31:30;24.00;48.20
33827;DHT22;20128;45.582;5.298;2023-09-12T06:33:56;24.00;47.80
33827;DHT22;20128;45.582;5.298;2023-09-12T06:36:25;24.00;48.10
33827;DHT22;20128;45.582;5.298;2023-09-12T06:38:51;24.00;48.70
33827;DHT22;20128;45.582;5.298;2023-09-12T06:41:20;24.10;48.50
33827;DHT22;20128;45.582;5.298;2023-09-12T06:43:46;24.10;48.40
33827;DHT22;20128;45.582;5.298;2023-09-12T06:46:12;24.10;47.80
33827;DHT22;20128;45.582;5.298;2023-09-12T06:48:38;24.10;47.60
33827;DHT22;20128;45.582;5.298;2023-09-12T06:51:09;24.10;48.00
33827;DHT22;20128;45.582;5.298;2023-09-12T06:53:35;24.10;47.70
33827;DHT22;20128;45.582;5.298;2023-09-12T06:56:02;24.10;47.50
33827;DHT22;20128;45.582;5.298;2023-09-12T06:58:28;24.10;47.10
33827;DHT22;20128;45.582;5.298;2023-09-12T07:00:53;24.10;47.30
33827;DHT22;20128;45.582;5.298;2023-09-12T07:03:19;24.00;46.50
33827;DHT22;20128;45.582;5.298;2023-09-12T07:05:45;24.00;46.10
33827;DHT22;20128;45.582;5.298;2023-09-12T07:08:10;24.00;45.80
33827;DHT22;20128;45.582;5.298;2023-09-12T07:10:37;24.00;45.10
33827;DHT22;20128;45.582;5.298;2023-09-12T07:13:02;24.00;45.50
33827;DHT22;20128;45.582;5.298;2023-09-12T07:15:29;24.00;45.50
33827;DHT22;20128;45.582;5.298;2023-09-12T07:17:54;24.00;45.40
33827;DHT22;20128;45.582;5.298;2023-09-12T07:20:21;24.10;44.70
33827;DHT22;20128;45.582;5.298;2023-09-12T07:22:47;24.10;44.50
33827;DHT22;20128;45.582;5.298;2023-09-12T07:25:14;24.10;44.70
33827;DHT22;20128;45.582;5.298;2023-09-12T07:27:39;24.10;44.60
33827;DHT22;20128;45.582;5.298;2023-09-12T07:30:06;24.10;44.90
33827;DHT22;20128;45.582;5.298;2023-09-12T07:32:32;24.20;44.90
33827;DHT22;20128;45.582;5.298;2023-09-12T07:34:58;24.30;44.60
33827;DHT22;20128;45.582;5.298;2023-09-12T07:37:24;24.20;44.60
33827;DHT22;20128;45.582;5.298;2023-09-12T07:39:49;24.20;44.50
33827;DHT22;20128;45.582;5.298;2023-09-12T07:42:15;24.20;44.30
33827;DHT22;20128;45.582;5.298;2023-09-12T07:44:40;24.30;44.60
33827;DHT22;20128;45.582;5.298;2023-09-12T07:47:07;24.30;44.60
33827;DHT22;20128;45.582;5.298;2023-09-12T07:49:32;24.20;44.60
33827;DHT22;20128;45.582;5.298;2023-09-12T07:51:58;24.20;44.30
33827;DHT22;20128;45.582;5.298;2023-09-12T07:54:24;24.30;44.40
33827;DHT22;20128;45.582;5.298;2023-09-12T07:56:49;24.30;44.50
33827;DHT22;20128;45.582;5.298;2023-09-12T07:59:15;24.30;44.60
33827;DHT22;20128;45.582;5.298;2023-09-12T08:01:41;24.30;44.60
33827;DHT22;20128;45.582;5.298;2023-09-12T08:04:06;24.30;44.40
33827;DHT22;20128;45.582;5.298;2023-09-12T08:06:32;24.30;44.60
33827;DHT22;20128;45.582;5.298;2023-09-12T08:08:58;24.30;44.50
33827;DHT22;20128;45.582;5.298;2023-09-12T08:11:24;24.30;44.60
33827;DHT22;20128;45.582;5.298;2023-09-12T08:13:49;24.30;44.70
33827;DHT22;20128;45.582;5.298;2023-09-12T08:16:15;24.40;44.70
33827;DHT22;20128;45.582;5.298;2023-09-12T08:18:41;24.40;44.80
33827;DHT22;20128;45.582;5.298;2023-09-12T08:21:07;24.50;44.60
33827;DHT22;20128;45.582;5.298;2023-09-12T08:23:33;24.50;44.60
33827;DHT22;20128;45.582;5.298;2023-09-12T08:25:59;24.60;45.20
33827;DHT22;20128;45.582;5.298;2023-09-12T08:28:25;24.70;45.90
33827;DHT22;20128;45.582;5.298;2023-09-12T08:30:51;24.70;46.10
33827;DHT22;20128;45.582;5.298;2023-09-12T08:33:16;24.70;45.10
33827;DHT22;20128;45.582;5.298;2023-09-12T08:35:42;24.70;44.50
33827;DHT22;20128;45.582;5.298;2023-09-12T08:38:08;24.80;44.50
33827;DHT22;20128;45.582;5.298;2023-09-12T08:40:34;24.80;44.50
33827;DHT22;20128;45.582;5.298;2023-09-12T08:43:01;24.90;45.90
33827;DHT22;20128;45.582;5.298;2023-09-12T08:45:29;24.90;46.00
33827;DHT22;20128;45.582;5.298;2023-09-12T08:47:58;24.90;44.80
33827;DHT22;20128;45.582;5.298;2023-09-12T08:50:24;25.10;44.80
33827;DHT22;20128;45.582;5.298;2023-09-12T08:52:50;25.40;44.90
33827;DHT22;20128;45.582;5.298;2023-09-12T08:55:16;25.60;44.00
33827;DHT22;20128;45.582;5.298;2023-09-12T08:57:44;25.80;43.80
33827;DHT22;20128;45.582;5.298;2023-09-12T09:00:13;26.00;43.70
33827;DHT22;20128;45.582;5.298;2023-09-12T09:02:43;26.10;43.50
33827;DHT22;20128;45.582;5.298;2023-09-12T09:05:11;26.20;43.50
33827;DHT22;20128;45.582;5.298;2023-09-12T09:07:41;26.30;43.70
33827;DHT22;20128;45.582;5.298;2023-09-12T09:10:14;26.50;43.80
33827;DHT22;20128;45.582;5.298;2023-09-12T09:12:40;26.70;43.60
33827;DHT22;20128;45.582;5.298;2023-09-12T09:15:28;26.90;43.50
33827;DHT22;20128;45.582;5.298;2023-09-12T09:17:55;27.00;43.20
33827;DHT22;20128;45.582;5.298;2023-09-12T09:20:32;27.00;43.30
33827;DHT22;20128;45.582;5.298;2023-09-12T09:23:08;27.10;43.50
33827;DHT22;20128;45.582;5.298;2023-09-12T09:25:42;27.20;44.10
33827;DHT22;20128;45.582;5.298;2023-09-12T09:28:18;27.30;43.50
33827;DHT22;20128;45.582;5.298;2023-09-12T09:30:50;27.50;43.50
33827;DHT22;20128;45.582;5.298;2023-09-12T09:33:21;27.70;43.20
33827;DHT22;20128;45.582;5.298;2023-09-12T09:35:47;28.00;43.90
33827;DHT22;20128;45.582;5.298;2023-09-12T09:38:14;28.10;43.80
33827;DHT22;20128;45.582;5.298;2023-09-12T09:40:42;28.30;43.30
33827;DHT22;20128;45.582;5.298;2023-09-12T09:43:08;28.50;43.10
33827;DHT22;20128;45.582;5.298;2023-09-12T09:45:45;28.70;42.60
33827;DHT22;20128;45.582;5.298;2023-09-12T09:48:18;28.80;42.50
33827;DHT22;20128;45.582;5.298;2023-09-12T09:50:43;28.90;42.50
33827;DHT22;20128;45.582;5.298;2023-09-12T09:53:09;29.00;42.40
33827;DHT22;20128;45.582;5.298;2023-09-12T09:55:36;29.00;42.40
33827;DHT22;20128;45.582;5.298;2023-09-12T09:58:02;29.10;42.60
33827;DHT22;20128;45.582;5.298;2023-09-12T10:00:33;29.10;42.30
33827;DHT22;20128;45.582;5.298;2023-09-12T10:03:00;29.20;42.10
33827;DHT22;20128;45.582;5.298;2023-09-12T10:05:28;29.30;42.00
33827;DHT22;20128;45.582;5.298;2023-09-12T10:07:55;29.40;41.40
33827;DHT22;20128;45.582;5.298;2023-09-12T10:10:24;29.50;40.80
33827;DHT22;20128;45.582;5.298;2023-09-12T10:12:58;29.60;40.90
33827;DHT22;20128;45.582;5.298;2023-09-12T10:15:28;29.80;41.10
33827;DHT22;20128;45.582;5.298;2023-09-12T10:18:00;29.80;41.00
33827;DHT22;20128;45.582;5.298;2023-09-12T10:20:35;29.70;41.00
33827;DHT22;20128;45.582;5.298;2023-09-12T10:23:12;29.70;41.40
33827;DHT22;20128;45.582;5.298;2023-09-12T10:25:40;29.80;41.50
33827;DHT22;20128;45.582;5.298;2023-09-12T10:28:07;30.00;41.90
33827;DHT22;20128;45.582;5.298;2023-09-12T10:30:33;29.90;42.20
33827;DHT22;20128;45.582;5.298;2023-09-12T10:33:02;30.00;42.30
33827;DHT22;20128;45.582;5.298;2023-09-12T10:35:30;29.90;42.60
33827;DHT22;20128;45.582;5.298;2023-09-12T10:38:00;30.10;42.40
33827;DHT22;20128;45.582;5.298;2023-09-12T10:40:27;30.10;41.80
33827;DHT22;20128;45.582;5.298;2023-09-12T10:42:55;30.30;41.30
33827;DHT22;20128;45.582;5.298;2023-09-12T10:45:21;30.40;41.10
33827;DHT22;20128;45.582;5.298;2023-09-12T10:47:47;30.50;40.90
33827;DHT22;20128;45.582;5.298;2023-09-12T10:50:14;30.50;40.70
33827;DHT22;20128;45.582;5.298;2023-09-12T10:52:39;30.70;41.00
33827;DHT22;20128;45.582;5.298;2023-09-12T10:55:07;30.80;41.20
33827;DHT22;20128;45.582;5.298;2023-09-12T10:57:33;31.00;41.20
33827;DHT22;20128;45.582;5.298;2023-09-12T11:02:36;31.20;41.00
33827;DHT22;20128;45.582;5.298;2023-09-12T11:05:06;31.30;40.50
33827;DHT22;20128;45.582;5.298;2023-09-12T11:07:44;31.40;39.60
33827;DHT22;20128;45.582;5.298;2023-09-12T11:12:44;31.40;38.40
33827;DHT22;20128;45.582;5.298;2023-09-12T11:15:11;31.20;38.50
33827;DHT22;20128;45.582;5.298;2023-09-12T11:17:41;31.10;38.90
33827;DHT22;20128;45.582;5.298;2023-09-12T11:20:07;31.10;38.60
33827;DHT22;20128;45.582;5.298;2023-09-12T11:22:40;31.10;38.70
33827;DHT22;20128;45.582;5.298;2023-09-12T11:25:17;31.10;39.20
33827;DHT22;20128;45.582;5.298;2023-09-12T11:27:45;31.10;39.50
33827;DHT22;20128;45.582;5.298;2023-09-12T11:30:12;31.00;39.60
33827;DHT22;20128;45.582;5.298;2023-09-12T11:32:37;31.00;39.50
33827;DHT22;20128;45.582;5.298;2023-09-12T11:35:07;30.80;39.60
33827;DHT22;20128;45.582;5.298;2023-09-12T11:37:33;30.70;40.40
33827;DHT22;20128;45.582;5.298;2023-09-12T11:42:40;30.70;40.40
33827;DHT22;20128;45.582;5.298;2023-09-12T11:45:10;30.60;40.20
33827;DHT22;20128;45.582;5.298;2023-09-12T11:47:46;30.60;39.90
33827;DHT22;20128;45.582;5.298;2023-09-12T11:50:34;30.70;39.30
33827;DHT22;20128;45.582;5.298;2023-09-12T11:55:44;30.80;39.50
33827;DHT22;20128;45.582;5.298;2023-09-12T11:58:11;30.80;39.60
33827;DHT22;20128;45.582;5.298;2023-09-12T12:00:37;30.90;39.90
33827;DHT22;20128;45.582;5.298;2023-09-12T12:03:04;31.00;39.70
33827;DHT22;20128;45.582;5.298;2023-09-12T12:05:30;31.10;39.70
33827;DHT22;20128;45.582;5.298;2023-09-12T12:07:57;31.10;40.00
33827;DHT22;20128;45.582;5.298;2023-09-12T12:10:23;31.10;39.00
33827;DHT22;20128;45.582;5.298;2023-09-12T12:12:52;31.10;38.80
33827;DHT22;20128;45.582;5.298;2023-09-12T12:15:18;31.10;38.60
33827;DHT22;20128;45.582;5.298;2023-09-12T12:17:44;31.10;38.40
33827;DHT22;20128;45.582;5.298;2023-09-12T12:20:10;31.10;38.00
33827;DHT22;20128;45.582;5.298;2023-09-12T12:22:38;31.00;38.20
33827;DHT22;20128;45.582;5.298;2023-09-12T12:25:08;31.00;38.40
33827;DHT22;20128;45.582;5.298;2023-09-12T12:27:38;31.00;38.30
33827;DHT22;20128;45.582;5.298;2023-09-12T12:30:09;31.00;38.50
33827;DHT22;20128;45.582;5.298;2023-09-12T12:32:39;31.10;38.80
33827;DHT22;20128;45.582;5.298;2023-09-12T12:35:05;31.20;38.70
33827;DHT22;20128;45.582;5.298;2023-09-12T12:37:32;31.30;39.00
33827;DHT22;20128;45.582;5.298;2023-09-12T12:39:59;31.30;37.90
33827;DHT22;20128;45.582;5.298;2023-09-12T12:42:34;31.30;36.90
33827;DHT22;20128;45.582;5.298;2023-09-12T12:45:00;31.30;36.40
33827;DHT22;20128;45.582;5.298;2023-09-12T12:47:25;31.30;36.10
33827;DHT22;20128;45.582;5.298;2023-09-12T12:49:52;31.30;35.70
33827;DHT22;20128;45.582;5.298;2023-09-12T12:52:23;31.40;35.70
33827;DHT22;20128;45.582;5.298;2023-09-12T12:54:49;31.40;35.20
33827;DHT22;20128;45.582;5.298;2023-09-12T12:57:19;31.40;35.50
33827;DHT22;20128;45.582;5.298;2023-09-12T12:59:47;31.40;35.30
33827;DHT22;20128;45.582;5.298;2023-09-12T13:02:13;31.40;35.90
33827;DHT22;20128;45.582;5.298;2023-09-12T13:04:38;31.40;36.40
33827;DHT22;20128;45.582;5.298;2023-09-12T13:07:04;31.40;36.90
33827;DHT22;20128;45.582;5.298;2023-09-12T13:09:31;31.40;37.30
33827;DHT22;20128;45.582;5.298;2023-09-12T13:11:56;31.50;37.80
33827;DHT22;20128;45.582;5.298;2023-09-12T13:14:22;31.50;38.10
33827;DHT22;20128;45.582;5.298;2023-09-12T13:16:55;31.50;38.40
33827;DHT22;20128;45.582;5.298;2023-09-12T13:19:20;31.60;38.50
33827;DHT22;20128;45.582;5.298;2023-09-12T13:21:46;31.60;39.60
33827;DHT22;20128;45.582;5.298;2023-09-12T13:24:11;31.50;39.00
33827;DHT22;20128;45.582;5.298;2023-09-12T13:26:38;31.60;39.00
33827;DHT22;20128;45.582;5.298;2023-09-12T13:29:05;31.60;38.70
33827;DHT22;20128;45.582;5.298;2023-09-12T13:31:31;31.60;38.90
33827;DHT22;20128;45.582;5.298;2023-09-12T13:33:57;31.50;39.00
33827;DHT22;20128;45.582;5.298;2023-09-12T13:36:23;31.60;39.30
33827;DHT22;20128;45.582;5.298;2023-09-12T13:38:52;31.60;38.90
33827;DHT22;20128;45.582;5.298;2023-09-12T13:41:18;31.70;39.10
33827;DHT22;20128;45.582;5.298;2023-09-12T13:43:43;31.70;38.50
33827;DHT22;20128;45.582;5.298;2023-09-12T13:46:12;31.60;37.90
33827;DHT22;20128;45.582;5.298;2023-09-12T13:48:38;31.70;38.00
33827;DHT22;20128;45.582;5.298;2023-09-12T13:51:04;31.60;38.20
33827;DHT22;20128;45.582;5.298;2023-09-12T13:53:30;31.60;38.50
33827;DHT22;20128;45.582;5.298;2023-09-12T13:55:56;31.60;38.80
33827;DHT22;20128;45.582;5.298;2023-09-12T13:58:23;31.70;38.80
33827;DHT22;20128;45.582;5.298;2023-09-12T14:00:49;31.70;38.70
33827;DHT22;20128;45.582;5.298;2023-09-12T14:03:14;31.70;39.10
33827;DHT22;20128;45.582;5.298;2023-09-12T14:05:41;31.60;39.40
33827;DHT22;20128;45.582;5.298;2023-09-12T14:08:06;31.60;40.40
33827;DHT22;20128;45.582;5.298;2023-09-12T14:10:32;31.50;39.40
33827;DHT22;20128;45.582;5.298;2023-09-12T14:12:57;31.40;39.20
33827;DHT22;20128;45.582;5.298;2023-09-12T14:15:23;31.40;39.60
33827;DHT22;20128;45.582;5.298;2023-09-12T14:17:49;31.40;39.60
33827;DHT22;20128;45.582;5.298;2023-09-12T14:20:14;31.30;39.80
33827;DHT22;20128;45.582;5.298;2023-09-12T14:22:43;31.30;40.20
33827;DHT22;20128;45.582;5.298;2023-09-12T14:25:10;31.20;40.20
33827;DHT22;20128;45.582;5.298;2023-09-12T14:27:41;31.20;40.40
33827;DHT22;20128;45.582;5.298;2023-09-12T14:30:07;31.20;40.70
33827;DHT22;20128;45.582;5.298;2023-09-12T14:32:33;31.20;40.90
33827;DHT22;20128;45.582;5.298;2023-09-12T14:34:59;31.20;41.30
33827;DHT22;20128;45.582;5.298;2023-09-12T14:37:24;31.20;41.50
33827;DHT22;20128;45.582;5.298;2023-09-12T14:39:56;31.20;42.10
33827;DHT22;20128;45.582;5.298;2023-09-12T14:42:22;31.10;42.30
33827;DHT22;20128;45.582;5.298;2023-09-12T14:44:48;31.10;42.80
33827;DHT22;20128;45.582;5.298;2023-09-12T14:47:14;31.00;43.00
33827;DHT22;20128;45.582;5.298;2023-09-12T14:49:39;31.00;43.40
33827;DHT22;20128;45.582;5.298;2023-09-12T14:52:05;31.00;43.60
33827;DHT22;20128;45.582;5.298;2023-09-12T14:54:31;31.00;43.50
33827;DHT22;20128;45.582;5.298;2023-09-12T14:56:57;31.00;43.80
33827;DHT22;20128;45.582;5.298;2023-09-12T14:59:22;31.00;43.90
33827;DHT22;20128;45.582;5.298;2023-09-12T15:01:48;31.00;44.00
33827;DHT22;20128;45.582;5.298;2023-09-12T15:04:14;31.00;44.10
33827;DHT22;20128;45.582;5.298;2023-09-12T15:06:39;30.90;44.30
33827;DHT22;20128;45.582;5.298;2023-09-12T15:09:05;30.70;44.40
33827;DHT22;20128;45.582;5.298;2023-09-12T15:11:31;30.70;44.70
33827;DHT22;20128;45.582;5.298;2023-09-12T15:13:58;30.60;44.70
33827;DHT22;20128;45.582;5.298;2023-09-12T15:16:25;30.60;44.80
33827;DHT22;20128;45.582;5.298;2023-09-12T15:18:51;30.60;45.00
33827;DHT22;20128;45.582;5.298;2023-09-12T15:21:17;30.50;45.10
33827;DHT22;20128;45.582;5.298;2023-09-12T15:23:43;30.50;45.30
33827;DHT22;20128;45.582;5.298;2023-09-12T15:26:08;30.40;45.40
33827;DHT22;20128;45.582;5.298;2023-09-12T15:28:34;30.40;45.40
33827;DHT22;20128;45.582;5.298;2023-09-12T15:31:00;30.40;45.40
33827;DHT22;20128;45.582;5.298;2023-09-12T15:33:28;30.40;45.40
33827;DHT22;20128;45.582;5.298;2023-09-12T15:35:54;30.20;45.50
33827;DHT22;20128;45.582;5.298;2023-09-12T15:38:19;30.30;45.80
33827;DHT22;20128;45.582;5.298;2023-09-12T15:40:45;30.20;45.60
33827;DHT22;20128;45.582;5.298;2023-09-12T15:43:11;30.20;45.50
33827;DHT22;20128;45.582;5.298;2023-09-12T15:45:36;30.20;45.50